createdAt,value
2022-09-17T00:01:08.169Z,8.68
2022-09-17T00:03:35.729Z,12.13
2022-09-17T00:06:07.987Z,14.95
2022-09-17T00:08:36.776Z,18.13
2022-09-17T00:11:21.184Z,11.85
2022-09-17T00:13:49.861Z,7.13
2022-09-17T00:16:26.596Z,9.90
2022-09-17T00:18:54.331Z,8.05
2022-09-17T00:21:21.574Z,10.82
2022-09-17T00:23:48.847Z,16.35
2022-09-17T00:26:15.973Z,15.45
2022-09-17T00:28:45.542Z,7.95
2022-09-17T00:31:12.641Z,11.45
2022-09-17T00:33:39.820Z,11.32
2022-09-17T00:36:07.197Z,8.20
2022-09-17T00:38:34.457Z,16.75
2022-09-17T00:41:02.348Z,15.07
2022-09-17T00:43:45.115Z,14.60
2022-09-17T00:46:26.681Z,16.15
2022-09-17T00:48:58.624Z,25.42
2022-09-17T00:51:36.179Z,19.50
2022-09-17T00:54:06.736Z,20.55
2022-09-17T00:56:38.950Z,14.63
2022-09-17T00:59:07.644Z,19.02
2022-09-17T01:01:34.548Z,21.05
2022-09-17T01:04:01.686Z,15.68
2022-09-17T01:06:34.578Z,15.65
2022-09-17T01:09:16.855Z,12.82
2022-09-17T01:11:43.781Z,12.80
2022-09-17T01:14:13.372Z,15.05
2022-09-17T01:16:46.506Z,18.30
2022-09-17T01:19:57.019Z,15.73
2022-09-17T01:22:34.234Z,13.48
2022-09-17T01:25:33.144Z,16.95
2022-09-17T01:28:00.060Z,24.98
2022-09-17T01:30:35.947Z,14.65
2022-09-17T01:33:30.574Z,16.83
2022-09-17T01:36:52.980Z,20.17
2022-09-17T01:39:43.754Z,16.83
2022-09-17T01:42:24.456Z,24.33
2022-09-17T01:45:05.410Z,23.88
2022-09-17T01:47:38.900Z,29.92
2022-09-17T01:50:12.977Z,28.27
2022-09-17T01:52:44.241Z,26.67
2022-09-17T01:55:19.856Z,37.90
2022-09-17T01:58:26.143Z,38.42
2022-09-17T02:00:57.547Z,42.90
2022-09-17T02:03:35.218Z,38.53
2022-09-17T02:06:11.035Z,31.60
2022-09-17T02:08:57.377Z,30.40
2022-09-17T02:11:24.893Z,25.63
2022-09-17T02:14:10.362Z,18.75
2022-09-17T02:16:44.986Z,12.90
2022-09-17T02:19:34.999Z,18.67
2022-09-17T02:22:12.463Z,13.63
2022-09-17T02:24:48.219Z,15.27
2022-09-17T02:27:39.037Z,18.90
2022-09-17T02:30:06.921Z,8.95
2022-09-17T02:32:33.928Z,10.75
2022-09-17T02:35:00.954Z,15.20
2022-09-17T02:37:27.977Z,16.80
2022-09-17T02:39:55.345Z,15.35
2022-09-17T02:42:47.347Z,26.15
2022-09-17T02:45:24.109Z,11.82
2022-09-17T02:48:02.718Z,14.90
2022-09-17T02:50:47.723Z,22.95
2022-09-17T02:53:26.914Z,27.15
2022-09-17T02:56:18.195Z,23.48
2022-09-17T02:58:53.787Z,31.55
2022-09-17T03:01:51.120Z,23.83
2022-09-17T03:04:21.197Z,32.20
2022-09-17T03:06:52.549Z,22.45
2022-09-17T03:09:19.704Z,28.80
2022-09-17T03:11:47.013Z,24.80
2022-09-17T03:14:13.960Z,28.98
2022-09-17T03:16:40.851Z,21.15
2022-09-17T03:19:08.202Z,19.95
2022-09-17T03:21:35.176Z,35.22
2022-09-17T03:24:02.272Z,26.15
2022-09-17T03:26:29.125Z,31.80
2022-09-17T03:28:56.319Z,23.02
2022-09-17T03:31:23.217Z,23.65
2022-09-17T03:33:50.346Z,31.80
2022-09-17T03:36:17.306Z,26.88
2022-09-17T03:38:44.178Z,25.23
2022-09-17T03:41:11.496Z,27.95
2022-09-17T03:43:39.923Z,39.40
2022-09-17T03:46:07.039Z,32.85
2022-09-17T03:48:37.305Z,32.20
2022-09-17T03:51:04.737Z,31.58
2022-09-17T03:53:32.617Z,25.52
2022-09-17T03:56:01.710Z,25.25
2022-09-17T03:58:30.136Z,30.58
2022-09-17T04:00:58.149Z,19.02
2022-09-17T04:03:26.743Z,43.80
2022-09-17T04:05:54.261Z,30.55
2022-09-17T04:08:21.682Z,29.77
2022-09-17T04:10:49.099Z,34.72
2022-09-17T04:13:17.168Z,22.73
2022-09-17T04:15:45.504Z,31.35
2022-09-17T04:18:13.254Z,25.23
2022-09-17T04:20:40.572Z,33.35
2022-09-17T04:23:07.624Z,27.83
2022-09-17T04:25:34.469Z,35.13
2022-09-17T04:28:01.507Z,31.88
2022-09-17T04:30:28.392Z,39.83
2022-09-17T04:32:55.263Z,32.08
2022-09-17T04:35:22.324Z,41.10
2022-09-17T04:37:53.608Z,33.00
2022-09-17T04:40:20.733Z,39.08
2022-09-17T04:42:47.651Z,34.97
2022-09-17T04:45:14.801Z,30.25
2022-09-17T04:47:41.665Z,31.77
2022-09-17T04:50:08.963Z,21.63
2022-09-17T04:52:35.826Z,25.48
2022-09-17T04:55:02.742Z,31.65
2022-09-17T04:57:29.606Z,30.02
2022-09-17T04:59:56.490Z,26.05
2022-09-17T05:02:23.571Z,10.75
2022-09-17T05:04:50.866Z,23.13
2022-09-17T05:07:17.760Z,20.70
2022-09-17T05:09:44.710Z,23.17
2022-09-17T05:12:11.578Z,25.35
2022-09-17T05:14:38.560Z,12.10
2022-09-17T05:17:05.518Z,16.98
2022-09-17T05:19:32.748Z,14.45
2022-09-17T05:21:59.603Z,24.13
2022-09-17T05:24:27.477Z,22.88
2022-09-17T05:26:54.443Z,25.90
2022-09-17T05:29:21.443Z,26.13
2022-09-17T05:31:48.382Z,30.25
2022-09-17T05:34:15.321Z,22.15
2022-09-17T05:36:42.217Z,29.27
2022-09-17T05:39:09.409Z,25.90
2022-09-17T05:41:36.268Z,16.52
2022-09-17T05:44:03.446Z,18.42
2022-09-17T05:46:30.402Z,14.68
2022-09-17T05:48:58.075Z,15.70
2022-09-17T05:51:25.376Z,12.10
2022-09-17T05:53:55.066Z,20.48
2022-09-17T05:56:22.310Z,14.55
2022-09-17T05:58:49.380Z,17.40
2022-09-17T06:01:16.478Z,19.23
2022-09-17T06:03:43.350Z,20.55
2022-09-17T06:06:10.975Z,16.15
2022-09-17T06:08:37.814Z,17.65
2022-09-17T06:11:06.032Z,19.98
2022-09-17T06:13:33.726Z,16.90
2022-09-17T06:16:01.894Z,21.67
2022-09-17T06:18:32.347Z,17.90
2022-09-17T06:21:01.666Z,15.52
2022-09-17T06:23:35.250Z,18.63
2022-09-17T06:26:03.362Z,30.23
2022-09-17T06:28:30.559Z,16.52
2022-09-17T06:31:04.757Z,17.83
2022-09-17T06:33:32.990Z,18.10
2022-09-17T06:36:01.753Z,23.25
2022-09-17T06:38:29.688Z,16.70
2022-09-17T06:40:56.765Z,29.15
2022-09-17T06:43:24.395Z,31.17
2022-09-17T06:45:59.452Z,24.58
2022-09-17T06:48:28.051Z,29.70
2022-09-17T06:50:55.119Z,35.38
2022-09-17T06:53:23.600Z,24.65
2022-09-17T06:55:50.905Z,31.27
2022-09-17T06:58:17.956Z,22.63
2022-09-17T07:00:45.111Z,19.60
2022-09-17T07:03:13.745Z,20.73
2022-09-17T07:05:43.908Z,18.38
2022-09-17T07:08:11.204Z,15.30
2022-09-17T07:10:38.099Z,25.52
2022-09-17T07:13:05.035Z,21.77
2022-09-17T07:15:32.670Z,23.38
2022-09-17T07:17:59.639Z,19.00
2022-09-17T07:20:26.498Z,14.25
2022-09-17T07:22:57.680Z,61.13
2022-09-17T07:25:26.730Z,21.42
2022-09-17T07:27:53.997Z,16.33
2022-09-17T07:30:21.326Z,16.40
2022-09-17T07:32:48.437Z,24.83
2022-09-17T07:35:15.572Z,17.65
2022-09-17T07:37:42.536Z,29.95
2022-09-17T07:40:09.603Z,22.00
2022-09-17T07:42:36.499Z,10.60
2022-09-17T07:45:03.561Z,27.92
2022-09-17T07:47:30.453Z,15.55
2022-09-17T07:49:57.863Z,15.13
2022-09-17T07:52:24.841Z,14.45
2022-09-17T07:54:51.737Z,12.88
2022-09-17T07:57:18.627Z,18.33
2022-09-17T07:59:45.495Z,22.10
2022-09-17T08:02:14.442Z,13.63
2022-09-17T08:04:44.183Z,21.25
2022-09-17T08:07:13.597Z,10.77
2022-09-17T08:09:40.522Z,10.32
2022-09-17T08:12:07.867Z,21.38
2022-09-17T08:14:34.726Z,28.80
2022-09-17T08:17:01.617Z,18.10
2022-09-17T08:19:32.951Z,13.20
2022-09-17T08:21:59.914Z,13.00
2022-09-17T08:24:27.744Z,13.93
2022-09-17T08:26:54.715Z,16.23
2022-09-17T08:29:21.564Z,11.25
2022-09-17T08:31:48.562Z,12.02
2022-09-17T08:34:15.615Z,16.00
2022-09-17T08:36:42.549Z,9.32
2022-09-17T08:39:11.230Z,23.52
2022-09-17T08:41:55.406Z,12.15
2022-09-17T08:44:39.931Z,13.95
2022-09-17T08:47:31.204Z,11.68
2022-09-17T08:50:00.730Z,10.68
2022-09-17T08:53:05.154Z,22.02
2022-09-17T08:55:41.296Z,9.23
2022-09-17T08:58:20.216Z,13.45
2022-09-17T09:01:05.786Z,12.63
2022-09-17T09:04:00.423Z,13.70
2022-09-17T09:09:21.274Z,11.95
2022-09-17T09:11:50.353Z,17.58
2022-09-17T09:14:26.495Z,7.93
2022-09-17T09:16:56.534Z,11.30
2022-09-17T09:19:30.437Z,9.40
2022-09-17T09:25:23.323Z,11.90
2022-09-17T09:28:36.782Z,11.52
2022-09-17T09:31:09.721Z,11.20
2022-09-17T09:33:41.613Z,7.18
2022-09-17T09:36:16.050Z,10.38
2022-09-17T09:38:58.999Z,8.00
2022-09-17T09:41:45.444Z,13.50
2022-09-17T09:44:15.605Z,11.02
2022-09-17T09:46:48.477Z,9.43
2022-09-17T09:50:04.499Z,11.05
2022-09-17T09:53:11.519Z,11.07
2022-09-17T09:56:15.849Z,12.00
2022-09-17T09:58:43.061Z,7.22
2022-09-17T10:01:20.671Z,9.95
2022-09-17T10:03:49.095Z,12.30
2022-09-17T10:06:17.058Z,7.68
2022-09-17T10:08:55.905Z,17.13
2022-09-17T10:11:33.154Z,13.60
2022-09-17T10:14:32.055Z,15.43
2022-09-17T10:17:22.103Z,8.55
2022-09-17T10:20:12.127Z,10.88
2022-09-17T10:22:44.781Z,9.95
2022-09-17T10:25:42.770Z,9.32
2022-09-17T10:28:50.538Z,9.18
2022-09-17T10:31:17.691Z,6.85
2022-09-17T10:33:59.383Z,6.15
2022-09-17T10:36:40.462Z,10.32
2022-09-17T10:39:26.798Z,15.10
2022-09-17T10:41:59.198Z,5.80
2022-09-17T10:44:28.882Z,11.88
2022-09-17T10:47:01.676Z,7.72
2022-09-17T10:49:48.708Z,5.43
2022-09-17T10:52:28.195Z,13.65
2022-09-17T10:55:21.082Z,7.75
2022-09-17T10:58:04.178Z,14.18
2022-09-17T11:01:12.856Z,12.75
2022-09-17T11:03:56.584Z,9.98
2022-09-17T11:06:23.502Z,13.27
2022-09-17T11:09:19.296Z,14.13
2022-09-17T11:11:49.184Z,13.40
2022-09-17T11:14:16.053Z,7.28
2022-09-17T11:16:53.644Z,9.80
2022-09-17T11:19:48.450Z,10.02
2022-09-17T11:22:30.457Z,14.20
2022-09-17T11:25:18.753Z,8.93
2022-09-17T11:28:10.104Z,8.75
2022-09-17T11:31:07.607Z,8.35
2022-09-17T11:33:47.193Z,7.40
2022-09-17T11:36:28.003Z,14.70
2022-09-17T11:38:59.811Z,13.75
2022-09-17T11:41:36.313Z,6.63
2022-09-17T11:44:25.843Z,8.30
2022-09-17T11:47:17.520Z,17.60
2022-09-17T11:49:55.831Z,11.07
2022-09-17T11:53:16.325Z,9.00
2022-09-17T11:55:51.387Z,11.93
2022-09-17T11:58:27.151Z,10.65
2022-09-17T12:01:06.099Z,7.90
2022-09-17T12:04:11.059Z,9.93
2022-09-17T12:06:49.358Z,15.73
2022-09-17T12:09:26.148Z,12.93
2022-09-17T12:12:02.887Z,16.10
2022-09-17T12:14:54.165Z,13.43
2022-09-17T12:17:28.558Z,11.20
2022-09-17T12:20:01.852Z,14.35
2022-09-17T12:22:35.976Z,13.88
2022-09-17T12:25:06.766Z,11.60
2022-09-17T12:27:39.303Z,12.35
2022-09-17T12:30:22.410Z,10.18
2022-09-17T12:33:19.289Z,14.48
2022-09-17T12:36:16.151Z,11.00
2022-09-17T12:39:02.622Z,13.63
2022-09-17T12:41:32.876Z,11.57
2022-09-17T12:44:02.517Z,9.63
2022-09-17T12:46:54.086Z,13.73
2022-09-17T12:49:42.537Z,12.55
2022-09-17T12:52:52.756Z,9.75
2022-09-17T12:55:36.398Z,10.13
2022-09-17T12:58:20.456Z,7.30
2022-09-17T13:01:04.113Z,5.75
2022-09-17T13:03:41.410Z,10.63
2022-09-17T13:06:26.653Z,11.25
2022-09-17T13:09:34.963Z,13.45
2022-09-17T13:12:18.106Z,12.43
2022-09-17T13:15:17.661Z,18.30
2022-09-17T13:18:27.123Z,12.15
2022-09-17T13:21:36.250Z,10.57
2022-09-17T13:24:18.150Z,16.75
2022-09-17T13:26:46.181Z,14.68
2022-09-17T13:29:33.502Z,11.02
2022-09-17T13:32:00.422Z,13.13
2022-09-17T13:34:30.430Z,7.30
2022-09-17T13:37:04.950Z,11.60
2022-09-17T13:39:43.835Z,12.13
2022-09-17T13:42:16.147Z,38.22
2022-09-17T13:44:49.585Z,39.67
2022-09-17T13:47:22.523Z,22.30
2022-09-17T13:49:57.645Z,15.30
2022-09-17T13:52:39.791Z,16.38
2022-09-17T13:55:08.958Z,23.38
2022-09-17T13:57:48.501Z,16.73
2022-09-17T14:00:49.657Z,15.55
2022-09-17T14:03:31.611Z,19.60
2022-09-17T14:06:19.527Z,7.88
2022-09-17T14:08:58.616Z,7.50
2022-09-17T14:11:32.432Z,8.23
2022-09-17T14:13:59.442Z,8.67
2022-09-17T14:16:35.891Z,5.70
2022-09-17T14:19:28.005Z,7.30
2022-09-17T14:21:59.686Z,3.72
2022-09-17T14:24:44.445Z,9.50
2022-09-17T14:27:39.963Z,8.55
2022-09-17T14:30:20.693Z,8.27
2022-09-17T14:33:02.737Z,7.32
2022-09-17T14:35:42.557Z,7.15
2022-09-17T14:38:20.202Z,5.32
2022-09-17T14:40:53.517Z,6.13
2022-09-17T14:43:25.404Z,4.80
2022-09-17T14:45:53.724Z,4.72
2022-09-17T14:48:47.020Z,5.93
2022-09-17T14:51:22.355Z,6.80
2022-09-17T14:54:06.179Z,7.55
2022-09-17T14:56:36.830Z,9.93
2022-09-17T14:59:03.784Z,6.22
2022-09-17T15:01:31.543Z,5.20
2022-09-17T15:04:13.453Z,7.53
2022-09-17T15:06:42.128Z,7.88
2022-09-17T15:09:16.939Z,6.97
2022-09-17T15:14:18.836Z,7.15
2022-09-17T15:16:51.789Z,5.07
2022-09-17T15:19:28.312Z,9.52
2022-09-17T15:21:57.634Z,7.85
2022-09-17T15:24:36.530Z,3.30
2022-09-17T15:27:12.533Z,6.05
2022-09-17T15:29:44.751Z,6.15
2022-09-17T15:32:15.037Z,3.55
2022-09-17T15:34:42.499Z,8.35
2022-09-17T15:37:19.488Z,3.33
2022-09-17T15:39:52.267Z,5.70
2022-09-17T15:42:28.022Z,8.90
2022-09-17T15:45:27.642Z,7.43
2022-09-17T15:47:56.770Z,2.97
2022-09-17T15:50:25.994Z,10.88
2022-09-17T15:53:11.084Z,7.35
2022-09-17T15:58:41.725Z,2.60
2022-09-17T16:01:14.903Z,7.90
2022-09-17T16:03:44.658Z,6.35
2022-09-17T16:06:25.471Z,8.60
2022-09-17T16:08:53.498Z,8.05
2022-09-17T16:11:23.181Z,5.97
2022-09-17T16:13:51.635Z,8.85
2022-09-17T16:16:21.341Z,4.68
2022-09-17T16:18:49.377Z,8.65
2022-09-17T16:21:18.614Z,5.65
2022-09-17T16:23:46.120Z,22.85
2022-09-17T16:26:18.334Z,20.83
2022-09-17T16:28:53.656Z,7.18
2022-09-17T16:31:21.335Z,5.93
2022-09-17T16:33:48.380Z,13.38
2022-09-17T16:36:18.907Z,6.20
2022-09-17T16:38:45.756Z,6.50
2022-09-17T16:41:12.837Z,3.95
2022-09-17T16:43:40.466Z,7.05
2022-09-17T16:46:10.904Z,11.95
2022-09-17T16:48:38.472Z,8.82
2022-09-17T16:51:09.598Z,9.02
2022-09-17T16:53:36.830Z,7.45
2022-09-17T16:56:11.268Z,8.77
2022-09-17T16:58:38.733Z,6.80
2022-09-17T17:01:09.378Z,17.23
2022-09-17T17:03:36.669Z,7.40
2022-09-17T17:06:04.216Z,11.85
2022-09-17T17:08:34.688Z,9.15
2022-09-17T17:11:01.669Z,5.57
2022-09-17T17:13:28.925Z,7.20
2022-09-17T17:15:55.955Z,8.40
2022-09-17T17:18:23.051Z,10.95
2022-09-17T17:20:50.175Z,15.00
2022-09-17T17:23:17.317Z,10.30
2022-09-17T17:25:44.221Z,17.27
2022-09-17T17:28:11.245Z,8.68
2022-09-17T17:30:38.628Z,16.42
2022-09-17T17:33:05.682Z,9.57
2022-09-17T17:35:32.768Z,8.65
2022-09-17T17:37:59.705Z,9.90
2022-09-17T17:40:26.886Z,14.20
2022-09-17T17:42:54.408Z,13.65
2022-09-17T17:45:21.398Z,13.05
2022-09-17T17:47:48.588Z,10.13
2022-09-17T17:50:16.113Z,16.83
2022-09-17T17:52:48.001Z,7.75
2022-09-17T17:55:16.521Z,7.07
2022-09-17T17:57:43.433Z,11.65
2022-09-17T18:00:14.590Z,14.48
2022-09-17T18:02:42.080Z,10.85
2022-09-17T18:05:18.228Z,9.80
2022-09-17T18:07:45.240Z,14.32
2022-09-17T18:10:13.256Z,13.98
2022-09-17T18:12:40.271Z,7.50
2022-09-17T18:15:10.832Z,12.25
2022-09-17T18:17:37.822Z,8.68
2022-09-17T18:20:05.507Z,6.18
2022-09-17T18:22:32.430Z,11.57
2022-09-17T18:24:59.369Z,12.70
2022-09-17T18:27:26.316Z,11.48
2022-09-17T18:29:53.309Z,8.60
2022-09-17T18:32:20.197Z,12.48
2022-09-17T18:34:47.093Z,12.13
2022-09-17T18:37:14.102Z,23.65
2022-09-17T18:42:27.942Z,10.60
2022-09-17T18:44:55.069Z,12.20
2022-09-17T18:47:21.989Z,21.15
2022-09-17T18:49:49.215Z,20.77
2022-09-17T18:52:16.217Z,15.55
2022-09-17T18:54:46.001Z,14.73
2022-09-17T18:57:13.973Z,11.10
2022-09-17T18:59:40.866Z,16.50
2022-09-17T19:02:12.048Z,13.15
2022-09-17T19:04:39.488Z,15.25
2022-09-17T19:07:06.853Z,18.25
2022-09-17T19:09:33.764Z,18.88
2022-09-17T19:12:00.696Z,18.08
2022-09-17T19:14:27.642Z,11.88
2022-09-17T19:16:55.358Z,15.90
2022-09-17T19:19:22.472Z,12.60
2022-09-17T19:21:50.755Z,12.18
2022-09-17T19:24:18.287Z,10.02
2022-09-17T19:26:50.664Z,11.45
2022-09-17T19:29:17.848Z,9.80
2022-09-17T19:31:44.946Z,15.38
2022-09-17T19:34:11.852Z,14.13
2022-09-17T19:36:38.717Z,14.52
2022-09-17T19:39:05.651Z,14.98
2022-09-17T19:41:33.523Z,15.30
2022-09-17T19:44:00.439Z,23.08
2022-09-17T19:46:27.494Z,12.63
2022-09-17T19:48:56.369Z,18.67
2022-09-17T19:51:25.964Z,13.38
2022-09-17T19:53:53.042Z,20.58
2022-09-17T19:56:25.669Z,14.73
2022-09-17T19:58:53.003Z,16.83
2022-09-17T20:01:20.253Z,13.10
2022-09-17T20:03:47.641Z,13.20
2022-09-17T20:06:17.315Z,10.43
2022-09-17T20:08:48.906Z,14.18
2022-09-17T20:11:17.363Z,12.63
2022-09-17T20:13:44.674Z,12.32
2022-09-17T20:16:22.324Z,15.88
2022-09-17T20:18:50.107Z,16.98
2022-09-17T20:21:23.136Z,13.18
2022-09-17T20:23:50.112Z,12.85
2022-09-17T20:26:17.782Z,12.23
2022-09-17T20:28:45.076Z,15.95
2022-09-17T20:31:14.800Z,12.90
2022-09-17T20:33:42.422Z,14.63
2022-09-17T20:36:15.444Z,23.95
2022-09-17T20:39:11.375Z,13.18
2022-09-17T20:41:31.743Z,17.25
2022-09-17T20:43:58.899Z,14.48
2022-09-17T20:46:29.347Z,13.25
2022-09-17T20:48:58.386Z,19.95
2022-09-17T20:51:30.420Z,14.25
2022-09-17T20:53:57.858Z,18.17
2022-09-17T20:56:27.563Z,17.10
2022-09-17T20:59:29.353Z,21.85
2022-09-17T21:01:56.230Z,27.95
2022-09-17T21:04:24.223Z,24.48
2022-09-17T21:06:53.207Z,17.30
2022-09-17T21:09:20.315Z,21.20
2022-09-17T21:11:48.904Z,15.98
2022-09-17T21:14:17.549Z,24.55
2022-09-17T21:16:45.271Z,36.67
2022-09-17T21:19:13.363Z,34.55
2022-09-17T21:21:40.470Z,38.25
2022-09-17T21:24:10.265Z,26.92
2022-09-17T21:26:37.412Z,23.13
2022-09-17T21:29:04.370Z,15.93
2022-09-17T21:31:33.902Z,15.20
2022-09-17T21:34:03.748Z,25.60
2022-09-17T21:36:33.165Z,16.27
2022-09-17T21:39:02.867Z,11.50
2022-09-17T21:41:30.404Z,12.30
2022-09-17T21:43:57.940Z,16.73
2022-09-17T21:46:32.289Z,14.38
2022-09-17T21:49:02.357Z,16.33
2022-09-17T21:51:32.286Z,22.73
2022-09-17T21:54:01.429Z,14.23
2022-09-17T21:56:29.886Z,14.90
2022-09-17T21:58:59.217Z,33.50
2022-09-17T22:01:40.685Z,17.77
2022-09-17T22:04:13.381Z,20.63
2022-09-17T22:06:41.702Z,23.20
2022-09-17T22:09:14.757Z,20.58
2022-09-17T22:11:46.420Z,22.83
2022-09-17T22:14:19.764Z,24.58
2022-09-17T22:16:52.191Z,25.83
2022-09-17T22:19:20.606Z,17.60
2022-09-17T22:21:51.429Z,20.48
2022-09-17T22:24:20.421Z,15.98
2022-09-17T22:26:55.765Z,11.52
2022-09-17T22:29:24.697Z,14.15
2022-09-17T22:31:51.674Z,13.27
2022-09-17T22:34:23.186Z,9.23
2022-09-17T22:36:50.295Z,14.80
2022-09-17T22:39:19.186Z,9.13
2022-09-17T22:41:46.332Z,13.80
2022-09-17T22:44:16.780Z,9.90
2022-09-17T22:46:46.445Z,14.43
2022-09-17T22:49:14.569Z,16.52
2022-09-17T22:51:42.470Z,19.77
2022-09-17T22:54:16.005Z,12.23
2022-09-17T22:56:43.636Z,12.32
2022-09-17T22:59:10.582Z,9.52
2022-09-17T23:01:38.959Z,10.98
2022-09-17T23:04:06.470Z,7.68
2022-09-17T23:06:36.180Z,7.25
2022-09-17T23:09:03.561Z,8.07
2022-09-17T23:11:33.971Z,11.52
2022-09-17T23:14:03.238Z,9.52
2022-09-17T23:16:38.823Z,9.43
2022-09-17T23:19:05.971Z,4.28
2022-09-17T23:21:33.016Z,8.88
2022-09-17T23:24:00.185Z,5.55
2022-09-17T23:26:27.671Z,9.90
2022-09-17T23:28:55.264Z,12.27
2022-09-17T23:31:24.711Z,8.60
2022-09-17T23:33:52.211Z,7.25
2022-09-17T23:36:22.570Z,3.75
2022-09-17T23:38:49.823Z,6.82
2022-09-17T23:41:22.032Z,4.13
2022-09-17T23:43:54.495Z,7.43
2022-09-17T23:46:23.122Z,3.13
2022-09-17T23:48:51.813Z,8.02
2022-09-17T23:51:18.785Z,4.13
2022-09-17T23:53:45.818Z,7.50
2022-09-17T23:56:16.282Z,5.35
2022-09-17T23:58:43.216Z,2.60
